sensor_id;sensor_type;location;lat;lon;timestamp;pressure;altitude;pressure_sealevel;temperature;humidity
75936;BME280;64614;32.062;34.834;2023-02-28T00:01:19;101532.22;;;23.85;50.76
75936;BME280;64614;32.062;34.834;2023-02-28T00:03:45;101525.16;;;23.84;50.75
75936;BME280;64614;32.062;34.834;2023-02-28T00:06:12;101527.56;;;23.85;50.84
75936;BME280;64614;32.062;34.834;2023-02-28T00:08:38;101522.91;;;23.86;51.12
75936;BME280;64614;32.062;34.834;2023-02-28T00:11:05;101523.72;;;23.86;50.94
75936;BME280;64614;32.062;34.834;2023-02-28T00:13:32;101521.50;;;23.88;50.90
75936;BME280;64614;32.062;34.834;2023-02-28T00:16:05;101508.28;;;23.90;50.87
75936;BME280;64614;32.062;34.834;2023-02-28T00:18:31;101512.44;;;23.88;51.00
75936;BME280;64614;32.062;34.834;2023-02-28T00:20:58;101510.53;;;23.88;51.51
75936;BME280;64614;32.062;34.834;2023-02-28T00:23:25;101509.38;;;23.89;51.63
75936;BME280;64614;32.062;34.834;2023-02-28T00:25:52;101513.75;;;23.90;51.30
75936;BME280;64614;32.062;34.834;2023-02-28T00:28:18;101515.41;;;23.91;51.36
75936;BME280;64614;32.062;34.834;2023-02-28T00:30:44;101511.03;;;23.90;51.42
75936;BME280;64614;32.062;34.834;2023-02-28T00:33:10;101499.25;;;23.90;51.89
75936;BME280;64614;32.062;34.834;2023-02-28T00:35:36;101511.84;;;23.91;51.88
75936;BME280;64614;32.062;34.834;2023-02-28T00:38:01;101508.28;;;23.90;51.85
75936;BME280;64614;32.062;34.834;2023-02-28T00:40:28;101500.06;;;23.90;51.77
75936;BME280;64614;32.062;34.834;2023-02-28T00:42:54;101496.50;;;23.90;51.93
75936;BME280;64614;32.062;34.834;2023-02-28T00:45:19;101496.28;;;23.86;52.18
75936;BME280;64614;32.062;34.834;2023-02-28T00:50:24;101498.22;;;23.86;52.43
75936;BME280;64614;32.062;34.834;2023-02-28T00:52:50;101493.34;;;23.83;51.84
75936;BME280;64614;32.062;34.834;2023-02-28T00:55:15;101492.81;;;23.81;51.51
75936;BME280;64614;32.062;34.834;2023-02-28T00:57:42;101490.59;;;23.83;51.50
75936;BME280;64614;32.062;34.834;2023-02-28T01:00:08;101490.59;;;23.83;51.25
75936;BME280;64614;32.062;34.834;2023-02-28T01:02:34;101490.59;;;23.83;51.01
75936;BME280;64614;32.062;34.834;2023-02-28T01:05:00;101488.97;;;23.82;51.44
75936;BME280;64614;32.062;34.834;2023-02-28T01:07:25;101484.59;;;23.81;51.20
75936;BME280;64614;32.062;34.834;2023-02-28T01:09:51;101492.81;;;23.81;51.29
75936;BME280;64614;32.062;34.834;2023-02-28T01:12:17;101485.69;;;23.79;51.43
75936;BME280;64614;32.062;34.834;2023-02-28T01:17:29;101493.63;;;23.81;51.48
75936;BME280;64614;32.062;34.834;2023-02-28T01:19:55;101488.97;;;23.82;51.83
75936;BME280;64614;32.062;34.834;2023-02-28T01:22:21;101497.19;;;23.82;51.68
75936;BME280;64614;32.062;34.834;2023-02-28T01:24:47;101489.75;;;23.82;52.04
75936;BME280;64614;32.062;34.834;2023-02-28T01:27:13;101498.31;;;23.81;51.88
75936;BME280;64614;32.062;34.834;2023-02-28T01:29:39;101501.03;;;23.81;51.72
75936;BME280;64614;32.062;34.834;2023-02-28T01:32:04;101493.94;;;23.79;52.00
75936;BME280;64614;32.062;34.834;2023-02-28T01:34:31;101500.53;;;23.78;52.07
75936;BME280;64614;32.062;34.834;2023-02-28T01:36:57;101495.03;;;23.78;52.14
75936;BME280;64614;32.062;34.834;2023-02-28T01:39:25;101493.13;;;23.79;52.35
75936;BME280;64614;32.062;34.834;2023-02-28T01:41:50;101495.88;;;23.79;51.92
75936;BME280;64614;32.062;34.834;2023-02-28T01:44:55;101493.13;;;23.79;52.02
75936;BME280;64614;32.062;34.834;2023-02-28T01:47:34;101492.59;;;23.77;52.12
75936;BME280;64614;32.062;34.834;2023-02-28T01:50:05;101498.09;;;23.77;51.84
75936;BME280;64614;32.062;34.834;2023-02-28T01:52:33;101496.16;;;23.77;52.03
75936;BME280;64614;32.062;34.834;2023-02-28T01:55:01;101501.16;;;23.75;52.00
75936;BME280;64614;32.062;34.834;2023-02-28T01:57:34;101502.25;;;23.74;51.75
75936;BME280;64614;32.062;34.834;2023-02-28T02:00:15;101494.03;;;23.74;51.62
75936;BME280;64614;32.062;34.834;2023-02-28T02:02:45;101507.22;;;23.72;51.70
75936;BME280;64614;32.062;34.834;2023-02-28T02:05:18;101494.03;;;23.74;51.55
75936;BME280;64614;32.062;34.834;2023-02-28T02:07:47;101504.78;;;23.71;51.40
75936;BME280;64614;32.062;34.834;2023-02-28T02:10:21;101505.88;;;23.70;51.49
75936;BME280;64614;32.062;34.834;2023-02-28T02:15:22;101500.41;;;23.70;51.69
75936;BME280;64614;32.062;34.834;2023-02-28T02:39:40;101512.63;;;23.58;50.79
75936;BME280;64614;32.062;34.834;2023-02-28T02:42:21;101508.56;;;23.56;50.76
75936;BME280;64614;32.062;34.834;2023-02-28T02:45:01;101516.56;;;23.52;50.45
75936;BME280;64614;32.062;34.834;2023-02-28T02:47:31;101516.84;;;23.51;50.24
75936;BME280;64614;32.062;34.834;2023-02-28T02:49:59;101517.97;;;23.50;50.41
75936;BME280;64614;32.062;34.834;2023-02-28T02:52:42;101522.94;;;23.47;50.59
75936;BME280;64614;32.062;34.834;2023-02-28T02:55:11;101525.38;;;23.49;50.12
75936;BME280;64614;32.062;34.834;2023-02-28T02:58:08;101521.53;;;23.50;50.54
75936;BME280;64614;32.062;34.834;2023-02-28T03:00:41;101519.91;;;23.49;50.16
75936;BME280;64614;32.062;34.834;2023-02-28T03:03:09;101523.75;;;23.48;50.09
75936;BME280;64614;32.062;34.834;2023-02-28T03:05:42;101524.59;;;23.49;50.17
75936;BME280;64614;32.062;34.834;2023-02-28T03:08:09;101520.50;;;23.46;50.30
75936;BME280;64614;32.062;34.834;2023-02-28T03:10:48;101523.22;;;23.46;50.17
75936;BME280;64614;32.062;34.834;2023-02-28T03:24:03;101521.09;;;23.43;49.91
75936;BME280;64614;32.062;34.834;2023-02-28T03:26:36;101519.47;;;23.42;49.46
75936;BME280;64614;32.062;34.834;2023-02-28T03:29:42;101515.09;;;23.41;49.64
75936;BME280;64614;32.062;34.834;2023-02-28T03:32:36;101524.72;;;23.38;49.43
75936;BME280;64614;32.062;34.834;2023-02-28T03:37:34;101512.13;;;23.37;49.10
75936;BME280;64614;32.062;34.834;2023-02-28T03:40:08;101519.81;;;23.35;48.94
75936;BME280;64614;32.062;34.834;2023-02-28T03:42:39;101525.31;;;23.35;49.27
75936;BME280;64614;32.062;34.834;2023-02-28T03:45:16;101530.50;;;23.37;48.61
75936;BME280;64614;32.062;34.834;2023-02-28T03:47:53;101528.06;;;23.35;48.70
75936;BME280;64614;32.062;34.834;2023-02-28T03:50:30;101528.34;;;23.34;48.88
75936;BME280;64614;32.062;34.834;2023-02-28T03:53:49;101531.09;;;23.34;48.91
75936;BME280;64614;32.062;34.834;2023-02-28T03:56:17;101526.72;;;23.33;49.13
75936;BME280;64614;32.062;34.834;2023-02-28T03:59:15;101529.47;;;23.33;48.47
75936;BME280;64614;32.062;34.834;2023-02-28T04:01:44;101544.28;;;23.31;48.09
75936;BME280;64614;32.062;34.834;2023-02-28T04:04:11;101539.09;;;23.30;48.50
75936;BME280;64614;32.062;34.834;2023-02-28T04:06:39;101533.63;;;23.30;48.43
75936;BME280;64614;32.062;34.834;2023-02-28T04:09:07;101535.53;;;23.29;48.71
75936;BME280;64614;32.062;34.834;2023-02-28T04:16:41;101538.03;;;23.26;48.08
75936;BME280;64614;32.062;34.834;2023-02-28T04:19:09;101544.34;;;23.26;47.48
75936;BME280;64614;32.062;34.834;2023-02-28T04:21:37;101544.34;;;23.26;48.08
75936;BME280;64614;32.062;34.834;2023-02-28T04:24:11;101550.63;;;23.27;47.50
75936;BME280;64614;32.062;34.834;2023-02-28T04:26:41;101549.22;;;23.29;47.35
75936;BME280;64614;32.062;34.834;2023-02-28T04:29:09;101551.69;;;23.31;47.18
75936;BME280;64614;32.062;34.834;2023-02-28T04:31:35;101556.03;;;23.32;47.15
75936;BME280;64614;32.062;34.834;2023-02-28T04:34:02;101548.88;;;23.36;46.92
75936;BME280;64614;32.062;34.834;2023-02-28T04:36:28;101561.78;;;23.36;47.14
75936;BME280;64614;32.062;34.834;2023-02-28T04:38:54;101561.16;;;23.39;46.60
75936;BME280;64614;32.062;34.834;2023-02-28T04:41:21;101563.03;;;23.43;46.71
75936;BME280;64614;32.062;34.834;2023-02-28T04:43:51;101575.53;;;23.50;46.55
75936;BME280;64614;32.062;34.834;2023-02-28T04:46:18;101562.88;;;23.54;46.24
75936;BME280;64614;32.062;34.834;2023-02-28T04:48:44;101563.09;;;23.57;45.82
75936;BME280;64614;32.062;34.834;2023-02-28T04:51:13;101569.63;;;23.61;45.09
75936;BME280;64614;32.062;34.834;2023-02-28T04:53:41;101562.66;;;23.69;44.60
75936;BME280;64614;32.062;34.834;2023-02-28T04:56:10;101576.31;;;23.74;44.07
75936;BME280;64614;32.062;34.834;2023-02-28T05:01:22;101581.53;;;23.90;43.90
75936;BME280;64614;32.062;34.834;2023-02-28T05:03:48;101576.53;;;23.97;43.58
75936;BME280;64614;32.062;34.834;2023-02-28T05:06:14;101579.41;;;24.06;43.86
75936;BME280;64614;32.062;34.834;2023-02-28T05:11:19;101570.00;;;24.26;43.03
75936;BME280;64614;32.062;34.834;2023-02-28T05:13:46;101577.56;;;24.34;42.84
75936;BME280;64614;32.062;34.834;2023-02-28T05:16:13;101581.25;;;24.44;42.66
75936;BME280;64614;32.062;34.834;2023-02-28T05:18:39;101586.56;;;24.54;42.56
75936;BME280;64614;32.062;34.834;2023-02-28T05:21:05;101582.78;;;24.64;41.96
75936;BME280;64614;32.062;34.834;2023-02-28T05:23:32;101584.56;;;24.74;41.41
75936;BME280;64614;32.062;34.834;2023-02-28T05:25:58;101573.88;;;24.86;41.39
75936;BME280;64614;32.062;34.834;2023-02-28T05:28:24;101573.38;;;24.98;41.61
75936;BME280;64614;32.062;34.834;2023-02-28T05:30:51;101577.03;;;25.07;41.02
75936;BME280;64614;32.062;34.834;2023-02-28T05:33:22;101571.94;;;25.14;40.84
75936;BME280;64614;32.062;34.834;2023-02-28T05:35:49;101578.44;;;25.18;40.37
75936;BME280;64614;32.062;34.834;2023-02-28T05:38:15;101577.22;;;25.25;40.46
75936;BME280;64614;32.062;34.834;2023-02-28T05:40:43;101575.97;;;25.31;39.87
75936;BME280;64614;32.062;34.834;2023-02-28T05:43:13;101586.03;;;25.35;39.65
75936;BME280;64614;32.062;34.834;2023-02-28T05:45:39;101570.28;;;25.41;40.18
75936;BME280;64614;32.062;34.834;2023-02-28T05:48:05;101572.09;;;25.46;40.09
75936;BME280;64614;32.062;34.834;2023-02-28T06:00:51;101574.72;;;25.65;40.00
75936;BME280;64614;32.062;34.834;2023-02-28T06:03:17;101571.66;;;25.67;40.23
75936;BME280;64614;32.062;34.834;2023-02-28T06:05:42;101576.03;;;25.68;40.09
75936;BME280;64614;32.062;34.834;2023-02-28T06:08:08;101578.28;;;25.65;40.15
75936;BME280;64614;32.062;34.834;2023-02-28T06:10:34;101584.91;;;25.64;40.04
75936;BME280;64614;32.062;34.834;2023-02-28T06:13:03;101586.53;;;25.65;40.05
75936;BME280;64614;32.062;34.834;2023-02-28T06:15:32;101592.22;;;25.69;39.87
75936;BME280;64614;32.062;34.834;2023-02-28T06:18:00;101592.22;;;25.69;39.90
75936;BME280;64614;32.062;34.834;2023-02-28T06:20:27;101583.16;;;25.69;39.80
75936;BME280;64614;32.062;34.834;2023-02-28T06:22:57;101590.59;;;25.68;39.90
75936;BME280;64614;32.062;34.834;2023-02-28T06:25:24;101583.16;;;25.69;39.96
75936;BME280;64614;32.062;34.834;2023-02-28T06:30:25;101591.41;;;25.69;39.95
75936;BME280;64614;32.062;34.834;2023-02-28T06:32:54;101595.28;;;25.68;39.73
75936;BME280;64614;32.062;34.834;2023-02-28T06:35:29;101601.28;;;25.70;40.44
75936;BME280;64614;32.062;34.834;2023-02-28T06:37:55;101602.41;;;25.69;40.05
75936;BME280;64614;32.062;34.834;2023-02-28T06:40:21;101599.66;;;25.69;40.09
75936;BME280;64614;32.062;34.834;2023-02-28T06:42:46;101600.16;;;25.71;40.24
75936;BME280;64614;32.062;34.834;2023-02-28T06:45:12;101590.78;;;25.72;39.73
75936;BME280;64614;32.062;34.834;2023-02-28T06:47:40;101600.66;;;25.73;40.19
75936;BME280;64614;32.062;34.834;2023-02-28T06:52:41;101590.16;;;25.75;40.13
75936;BME280;64614;32.062;34.834;2023-02-28T06:55:07;101587.91;;;25.77;39.65
75936;BME280;64614;32.062;34.834;2023-02-28T06:57:34;101603.59;;;25.76;39.87
75936;BME280;64614;32.062;34.834;2023-02-28T07:00:02;101587.91;;;25.77;39.80
75936;BME280;64614;32.062;34.834;2023-02-28T07:02:28;101587.91;;;25.77;39.83
75936;BME280;64614;32.062;34.834;2023-02-28T07:04:55;101582.41;;;25.77;39.89
75936;BME280;64614;32.062;34.834;2023-02-28T07:07:21;101595.06;;;25.78;39.88
75936;BME280;64614;32.062;34.834;2023-02-28T07:12:23;101591.16;;;25.79;40.15
75936;BME280;64614;32.062;34.834;2023-02-28T07:14:50;101578.53;;;25.78;40.08
75936;BME280;64614;32.062;34.834;2023-02-28T07:17:16;101591.16;;;25.79;39.78
75936;BME280;64614;32.062;34.834;2023-02-28T07:19:41;101571.41;;;25.77;39.79
75936;BME280;64614;32.062;34.834;2023-02-28T07:22:10;101573.53;;;25.80;39.77
75936;BME280;64614;32.062;34.834;2023-02-28T07:24:37;101572.72;;;25.79;40.01
75936;BME280;64614;32.062;34.834;2023-02-28T07:27:03;101574.97;;;25.77;39.88
75936;BME280;64614;32.062;34.834;2023-02-28T07:29:29;101579.16;;;25.75;38.90
75936;BME280;64614;32.062;34.834;2023-02-28T07:31:56;101556.97;;;25.71;39.31
75936;BME280;64614;32.062;34.834;2023-02-28T07:34:23;101586.41;;;25.71;39.55
75936;BME280;64614;32.062;34.834;2023-02-28T07:36:49;101575.19;;;25.67;39.23
75936;BME280;64614;32.062;34.834;2023-02-28T07:39:20;101583.44;;;25.67;39.31
75936;BME280;64614;32.062;34.834;2023-02-28T07:41:47;101573.88;;;25.64;39.02
75936;BME280;64614;32.062;34.834;2023-02-28T07:44:13;101569.84;;;25.62;38.93
75936;BME280;64614;32.062;34.834;2023-02-28T07:46:39;101572.38;;;25.58;38.19
75936;BME280;64614;32.062;34.834;2023-02-28T07:49:06;101583.69;;;25.57;38.46
75936;BME280;64614;32.062;34.834;2023-02-28T07:51:32;101565.56;;;25.56;38.77
75936;BME280;64614;32.062;34.834;2023-02-28T07:53:58;101574.13;;;25.54;38.95
75936;BME280;64614;32.062;34.834;2023-02-28T07:56:24;101572.19;;;25.55;38.58
75936;BME280;64614;32.062;34.834;2023-02-28T07:58:49;101576.06;;;25.54;39.17
75936;BME280;64614;32.062;34.834;2023-02-28T08:01:16;101564.56;;;25.52;38.76
75936;BME280;64614;32.062;34.834;2023-02-28T08:03:43;101573.94;;;25.50;38.90
75936;BME280;64614;32.062;34.834;2023-02-28T08:06:18;101602.88;;;25.48;38.09
75936;BME280;64614;32.062;34.834;2023-02-28T08:08:45;101573.22;;;25.45;37.88
75936;BME280;64614;32.062;34.834;2023-02-28T08:11:12;101577.31;;;25.47;38.29
75936;BME280;64614;32.062;34.834;2023-02-28T08:13:38;101568.25;;;25.47;38.38
75936;BME280;64614;32.062;34.834;2023-02-28T08:16:04;101573.75;;;25.47;38.46
75936;BME280;64614;32.062;34.834;2023-02-28T08:18:29;101566.59;;;25.46;38.54
75936;BME280;64614;32.062;34.834;2023-02-28T08:20:57;101565.81;;;25.45;38.48
75936;BME280;64614;32.062;34.834;2023-02-28T08:23:22;101575.19;;;25.44;38.50
75936;BME280;64614;32.062;34.834;2023-02-28T08:25:57;101573.53;;;25.43;38.64
75936;BME280;64614;32.062;34.834;2023-02-28T08:28:25;101578.53;;;25.41;38.48
75936;BME280;64614;32.062;34.834;2023-02-28T08:30:50;101558.47;;;25.41;38.54
75936;BME280;64614;32.062;34.834;2023-02-28T08:33:17;101557.66;;;25.40;38.83
75936;BME280;64614;32.062;34.834;2023-02-28T08:35:44;101559.59;;;25.40;38.48
75936;BME280;64614;32.062;34.834;2023-02-28T08:38:09;101551.34;;;25.40;38.46
75936;BME280;64614;32.062;34.834;2023-02-28T08:40:35;101557.66;;;25.40;38.48
75936;BME280;64614;32.062;34.834;2023-02-28T08:43:01;101552.44;;;25.39;38.59
75936;BME280;64614;32.062;34.834;2023-02-28T08:48:03;101557.44;;;25.37;38.50
75936;BME280;64614;32.062;34.834;2023-02-28T08:50:29;101558.56;;;25.35;38.14
75936;BME280;64614;32.062;34.834;2023-02-28T08:52:54;101566.81;;;25.35;38.22
75936;BME280;64614;32.062;34.834;2023-02-28T08:55:20;101546.25;;;25.33;37.81
75936;BME280;64614;32.062;34.834;2023-02-28T08:57:46;101553.69;;;25.32;37.85
75936;BME280;64614;32.062;34.834;2023-02-28T09:00:12;101548.47;;;25.31;38.12
75936;BME280;64614;32.062;34.834;2023-02-28T09:02:40;101565.81;;;25.31;37.93
75936;BME280;64614;32.062;34.834;2023-02-28T09:05:09;101542.19;;;25.30;38.28
75936;BME280;64614;32.062;34.834;2023-02-28T09:07:34;101542.19;;;25.30;38.17
75936;BME280;64614;32.062;34.834;2023-02-28T09:10:00;101549.13;;;25.28;37.49
75936;BME280;64614;32.062;34.834;2023-02-28T09:12:27;101543.63;;;25.28;37.14
75936;BME280;64614;32.062;34.834;2023-02-28T09:14:53;101542.00;;;25.27;37.24
75936;BME280;64614;32.062;34.834;2023-02-28T09:17:20;101549.41;;;25.26;37.22
75936;BME280;64614;32.062;34.834;2023-02-28T09:19:47;101539.56;;;25.25;36.78
75936;BME280;64614;32.062;34.834;2023-02-28T09:22:16;101537.94;;;25.24;37.30
75936;BME280;64614;32.062;34.834;2023-02-28T09:24:42;101537.94;;;25.24;37.32
75936;BME280;64614;32.062;34.834;2023-02-28T09:29:42;101524.97;;;25.25;37.28
75936;BME280;64614;32.062;34.834;2023-02-28T09:32:08;101534.97;;;25.21;37.53
75936;BME280;64614;32.062;34.834;2023-02-28T09:34:34;101535.28;;;25.19;37.54
75936;BME280;64614;32.062;34.834;2023-02-28T09:37:02;101535.28;;;25.19;37.70
75936;BME280;64614;32.062;34.834;2023-02-28T09:39:29;101531.72;;;25.18;37.63
75936;BME280;64614;32.062;34.834;2023-02-28T09:41:55;101520.22;;;25.16;37.45
75936;BME280;64614;32.062;34.834;2023-02-28T09:44:38;101519.09;;;25.17;37.85
75936;BME280;64614;32.062;34.834;2023-02-28T09:47:29;101504.22;;;25.18;37.57
75936;BME280;64614;32.062;34.834;2023-02-28T09:49:58;101504.53;;;25.17;37.49
75936;BME280;64614;32.062;34.834;2023-02-28T10:00:24;101516.66;;;25.16;37.73
75936;BME280;64614;32.062;34.834;2023-02-28T10:03:01;101494.69;;;25.16;37.55
75936;BME280;64614;32.062;34.834;2023-02-28T10:05:41;101477.34;;;25.15;37.92
75936;BME280;64614;32.062;34.834;2023-02-28T10:08:15;101488.66;;;25.14;37.68
75936;BME280;64614;32.062;34.834;2023-02-28T10:10:56;101479.31;;;25.15;37.59
75936;BME280;64614;32.062;34.834;2023-02-28T10:16:05;101461.69;;;25.16;37.53
75936;BME280;64614;32.062;34.834;2023-02-28T10:18:43;101466.03;;;25.17;37.54
75936;BME280;64614;32.062;34.834;2023-02-28T10:23:47;101445.81;;;25.13;37.53
75936;BME280;64614;32.062;34.834;2023-02-28T10:26:16;101439.19;;;25.14;37.61
75936;BME280;64614;32.062;34.834;2023-02-28T10:28:42;101425.44;;;25.14;37.57
75936;BME280;64614;32.062;34.834;2023-02-28T10:31:15;101443.84;;;25.13;37.23
75936;BME280;64614;32.062;34.834;2023-02-28T10:33:43;101407.66;;;25.11;37.17
75936;BME280;64614;32.062;34.834;2023-02-28T10:36:16;101397.47;;;25.12;37.18
75936;BME280;64614;32.062;34.834;2023-02-28T10:38:42;101384.84;;;25.11;37.08
75936;BME280;64614;32.062;34.834;2023-02-28T10:43:44;101392.56;;;25.09;37.22
75936;BME280;64614;32.062;34.834;2023-02-28T10:46:18;101376.09;;;25.09;37.18
75936;BME280;64614;32.062;34.834;2023-02-28T10:49:04;101380.78;;;25.08;37.21
75936;BME280;64614;32.062;34.834;2023-02-28T10:51:37;101390.16;;;25.07;37.27
75936;BME280;64614;32.062;34.834;2023-02-28T10:57:18;101369.00;;;25.08;37.14
75936;BME280;64614;32.062;34.834;2023-02-28T10:59:51;101359.41;;;25.05;36.68
75936;BME280;64614;32.062;34.834;2023-02-28T11:15:34;101317.81;;;24.98;35.68
75936;BME280;64614;32.062;34.834;2023-02-28T11:24:33;101333.78;;;24.96;35.99
75936;BME280;64614;32.062;34.834;2023-02-28T11:38:56;101300.91;;;25.05;36.57
75936;BME280;64614;32.062;34.834;2023-02-28T11:51:03;101292.16;;;25.02;36.71
75936;BME280;64614;32.062;34.834;2023-02-28T11:56:43;101279.97;;;24.95;36.41
75936;BME280;64614;32.062;34.834;2023-02-28T11:59:36;101285.47;;;24.95;36.80
75936;BME280;64614;32.062;34.834;2023-02-28T12:02:23;101274.00;;;24.93;36.71
75936;BME280;64614;32.062;34.834;2023-02-28T12:13:06;101252.06;;;24.79;36.86
75936;BME280;64614;32.062;34.834;2023-02-28T12:18:55;101247.00;;;24.72;37.20
75936;BME280;64614;32.062;34.834;2023-02-28T12:26:58;101246.28;;;24.66;37.01
75936;BME280;64614;32.062;34.834;2023-02-28T12:29:32;101251.28;;;24.64;37.07
75936;BME280;64614;32.062;34.834;2023-02-28T12:34:56;101245.31;;;24.62;37.13
75936;BME280;64614;32.062;34.834;2023-02-28T12:40:07;101240.63;;;24.63;37.20
75936;BME280;64614;32.062;34.834;2023-02-28T12:42:43;101225.25;;;24.62;37.10
75936;BME280;64614;32.062;34.834;2023-02-28T12:45:27;101232.19;;;24.59;37.25
75936;BME280;64614;32.062;34.834;2023-02-28T12:48:01;101234.44;;;24.57;37.20
75936;BME280;64614;32.062;34.834;2023-02-28T12:50:30;101232.00;;;24.55;37.16
75936;BME280;64614;32.062;34.834;2023-02-28T12:53:05;101220.22;;;24.55;37.29
75936;BME280;64614;32.062;34.834;2023-02-28T12:55:59;101214.72;;;24.55;37.13
75936;BME280;64614;32.062;34.834;2023-02-28T12:58:55;101217.94;;;24.57;37.27
75936;BME280;64614;32.062;34.834;2023-02-28T13:10:05;101203.09;;;24.58;37.62
75936;BME280;64614;32.062;34.834;2023-02-28T13:12:33;101211.03;;;24.60;37.29
75936;BME280;64614;32.062;34.834;2023-02-28T13:15:19;101217.94;;;24.57;37.53
75936;BME280;64614;32.062;34.834;2023-02-28T13:17:56;101204.22;;;24.57;37.58
75936;BME280;64614;32.062;34.834;2023-02-28T13:20:35;101206.00;;;24.53;37.30
75936;BME280;64614;32.062;34.834;2023-02-28T13:23:01;101219.72;;;24.53;37.39
75936;BME280;64614;32.062;34.834;2023-02-28T13:28:07;101214.84;;;24.50;37.74
75936;BME280;64614;32.062;34.834;2023-02-28T13:34:22;101200.59;;;24.48;37.70
75936;BME280;64614;32.062;34.834;2023-02-28T13:36:30;101193.00;;;24.45;37.67
75936;BME280;64614;32.062;34.834;2023-02-28T13:44:20;101201.84;;;24.41;37.70
75936;BME280;64614;32.062;34.834;2023-02-28T13:49:28;101210.09;;;24.41;37.86
75936;BME280;64614;32.062;34.834;2023-02-28T13:54:54;101193.28;;;24.43;37.61
75936;BME280;64614;32.062;34.834;2023-02-28T14:06:09;101193.38;;;24.52;37.60
75936;BME280;64614;32.062;34.834;2023-02-28T14:11:44;101177.09;;;24.55;37.42
75936;BME280;64614;32.062;34.834;2023-02-28T14:17:02;101178.91;;;24.60;37.38
75936;BME280;64614;32.062;34.834;2023-02-28T14:19:31;101171.97;;;24.63;37.42
75936;BME280;64614;32.062;34.834;2023-02-28T14:22:21;101181.03;;;24.63;37.67
75936;BME280;64614;32.062;34.834;2023-02-28T14:30:24;101183.13;;;24.66;37.22
75936;BME280;64614;32.062;34.834;2023-02-28T14:36:18;101174.81;;;24.71;37.53
75936;BME280;64614;32.062;34.834;2023-02-28T14:38:57;101178.69;;;24.70;37.29
75936;BME280;64614;32.062;34.834;2023-02-28T14:41:34;101172.34;;;24.70;37.25
75936;BME280;64614;32.062;34.834;2023-02-28T14:44:24;101172.06;;;24.71;37.39
75936;BME280;64614;32.062;34.834;2023-02-28T14:46:54;101165.44;;;24.73;37.13
75936;BME280;64614;32.062;34.834;2023-02-28T14:49:29;101163.50;;;24.73;36.99
75936;BME280;64614;32.062;34.834;2023-02-28T14:52:28;101163.34;;;24.78;37.46
75936;BME280;64614;32.062;34.834;2023-02-28T14:54:56;101164.78;;;24.76;37.32
75936;BME280;64614;32.062;34.834;2023-02-28T14:57:38;101156.56;;;24.76;37.36
75936;BME280;64614;32.062;34.834;2023-02-28T15:00:18;101163.16;;;24.75;37.19
75936;BME280;64614;32.062;34.834;2023-02-28T15:05:31;101164.78;;;24.76;37.42
75936;BME280;64614;32.062;34.834;2023-02-28T15:10:28;101160.44;;;24.75;37.08
75936;BME280;64614;32.062;34.834;2023-02-28T15:15:19;101158.50;;;24.75;37.25
75936;BME280;64614;32.062;34.834;2023-02-28T15:17:51;101163.66;;;24.77;37.41
75936;BME280;64614;32.062;34.834;2023-02-28T15:22:55;101159.31;;;24.76;37.27
75936;BME280;64614;32.062;34.834;2023-02-28T15:25:22;101164.00;;;24.75;37.25
75936;BME280;64614;32.062;34.834;2023-02-28T15:27:51;101180.47;;;24.75;37.30
75936;BME280;64614;32.062;34.834;2023-02-28T15:30:25;101170.28;;;24.76;36.94
75936;BME280;64614;32.062;34.834;2023-02-28T15:33:15;101161.72;;;24.77;37.34
75936;BME280;64614;32.062;34.834;2023-02-28T15:35:43;101169.50;;;24.75;37.26
75936;BME280;64614;32.062;34.834;2023-02-28T15:38:23;101168.66;;;24.75;37.35
75936;BME280;64614;32.062;34.834;2023-02-28T15:40:55;101156.06;;;24.74;36.98
75936;BME280;64614;32.062;34.834;2023-02-28T15:43:28;101164.00;;;24.75;36.95
75936;BME280;64614;32.062;34.834;2023-02-28T15:46:03;101164.47;;;24.77;36.97
75936;BME280;64614;32.062;34.834;2023-02-28T15:56:05;101168.66;;;24.75;37.10
75936;BME280;64614;32.062;34.834;2023-02-28T15:58:35;101174.16;;;24.75;37.07
75936;BME280;64614;32.062;34.834;2023-02-28T16:01:23;101175.78;;;24.76;37.21
75936;BME280;64614;32.062;34.834;2023-02-28T16:03:53;101176.44;;;24.73;37.04
75936;BME280;64614;32.062;34.834;2023-02-28T16:08:58;101169.31;;;24.71;37.45
75936;BME280;64614;32.062;34.834;2023-02-28T16:11:24;101178.69;;;24.70;36.96
75936;BME280;64614;32.062;34.834;2023-02-28T16:13:51;101171.56;;;24.69;36.94
75936;BME280;64614;32.062;34.834;2023-02-28T16:16:20;101173.38;;;24.74;36.98
75936;BME280;64614;32.062;34.834;2023-02-28T16:18:46;101176.91;;;24.75;36.96
75936;BME280;64614;32.062;34.834;2023-02-28T16:21:12;101170.72;;;24.69;37.24
75936;BME280;64614;32.062;34.834;2023-02-28T16:23:38;101163.91;;;24.66;37.14
75936;BME280;64614;32.062;34.834;2023-02-28T16:26:05;101170.72;;;24.69;37.14
75936;BME280;64614;32.062;34.834;2023-02-28T16:28:36;101169.13;;;24.68;37.02
75936;BME280;64614;32.062;34.834;2023-02-28T16:31:05;101178.16;;;24.68;36.92
75936;BME280;64614;32.062;34.834;2023-02-28T16:37:28;101176.84;;;24.66;37.25
75936;BME280;64614;32.062;34.834;2023-02-28T16:39:53;101188.63;;;24.66;37.04
75936;BME280;64614;32.062;34.834;2023-02-28T16:42:26;101182.31;;;24.66;37.14
75936;BME280;64614;32.062;34.834;2023-02-28T16:44:52;101188.63;;;24.66;37.11
75936;BME280;64614;32.062;34.834;2023-02-28T16:47:19;101192.50;;;24.65;36.69
75936;BME280;64614;32.062;34.834;2023-02-28T16:49:45;101202.69;;;24.65;36.92
75936;BME280;64614;32.062;34.834;2023-02-28T16:52:13;101201.84;;;24.64;36.89